Anza Borrego Desert State Park, California Weather observations

Data are for 10 minute period ending at time listed.
 Day   Time   Solar   Ave.   Ave.  Ave.  Vector  Max.   Baro.   Total    
  of    of     Rad.   Air    Rel.  Wind   Wind   Wind  Press.  Precip.   
Year   Day            Temp.  Hum.  Speed  Dir.   Gust                    
2016   (PST)  Kw/m2    F      %     mph   deg.    mph    mb.     in.     
-------------------------------------------------------------------------
 272   17:00   0.01   89.9    22    3.0   119     5.6   980.9    0.00 
 272   17:10   0.01   89.4    23    1.6    98     5.6   980.9    0.00 
 272   17:20   0.01   88.8    23    4.3   112     6.1   980.8    0.00 
 272   17:30   0.00   88.4    24    3.5   104     4.7   980.8    0.00 
 272   17:40   0.00   87.2    25    3.0   119     3.9   980.9    0.00 
 272   17:50   0.00   86.2    26    2.3   131     3.6   981.0    0.00 
 272   18:00   0.00   83.7    29    1.6   231     3.3   981.1    0.00 
 272   18:10   0.00   83.0    29    4.2   238     5.4   981.2    0.00 
 272   18:20   0.00   83.2    29    5.3   239     6.5   981.2    0.00 
 272   18:30   0.00   83.1    28    7.0   236     8.9   981.3    0.00 
 272   18:40   0.00   84.3    27    8.1   238     9.6   981.4    0.00 
 272   18:50   0.00   84.7    27    8.0   237     9.7   981.5    0.00 
 272   19:00   0.00   84.4    27    7.4   242     8.9   981.6    0.00 
 272   19:10   0.00   84.2    27    7.8   242     9.9   981.7    0.00 
 272   19:20   0.00   83.8    28    6.8   248     8.8   981.9    0.00 
 272   19:30   0.00   83.0    28    6.5   253     9.1   982.0    0.00 
 272   19:40   0.00   84.1    27    7.3   251    10.7   982.1    0.00 
 272   19:50   0.00   83.6    28    5.5   266     7.5   982.2    0.00 
 272   20:00   0.00   83.5    28    6.2   264     8.8   982.2    0.00 
 272   20:10   0.00   83.2    28    6.0   271     8.6   982.2    0.00 
 272   20:20   0.00   83.4    28    5.7   259     8.5   982.3    0.00 
 272   20:30   0.00   83.3    28    6.0   264     7.5   982.3    0.00 
 272   20:40   0.00   84.1    27    6.0   256     8.3   982.4    0.00 
 272   20:50   0.00   84.1    27    4.7   258     7.6   982.4    0.00 
 272   21:00   0.00   83.9    27    2.7   269     5.3   982.5    0.00 
 272   21:10   0.00   83.2    28    3.8   252     5.8   982.6    0.00 
 272   21:20   0.00   82.7    29    4.2   264     7.7   982.6    0.00 
 272   21:30   0.00   82.6    29    4.9   262     7.0   982.7    0.00 
 272   21:40   0.00   82.1    29    4.4   270     6.4   982.7    0.00 
 272   21:50   0.00   82.5    29    4.2   261     6.6   982.8    0.00 
 272   22:00   0.00   82.7    29    4.4   258     6.3   982.9    0.00 
 272   22:10   0.00   83.1    28    4.7   255     7.2   982.9    0.00 
 272   22:20   0.00   83.3    28    4.6   264     7.4   982.9    0.00 
 272   22:30   0.00   82.4    29    4.9   248     8.0   982.9    0.00 
 272   22:40   0.00   79.6    33    4.5   222     6.6   983.0    0.00 
 272   22:50   0.00   78.4    34    4.0   196     6.8   983.1    0.00 
 272   23:00   0.00   78.5    34    3.2   211     4.3   983.1    0.00 
 272   23:10   0.00   79.0    33    4.7   194     5.6   983.1    0.00 
 272   23:20   0.00   78.7    34    3.8   214     5.4   983.1    0.00 
 272   23:30   0.00   78.2    34    3.7   232     5.7   983.1    0.00 
 272   23:40   0.00   77.5    35    3.0   245     3.9   983.2    0.00 
 272   23:50   0.00   75.7    38    3.5   256     5.4   983.2    0.00 
 273    0:00   0.00   76.6    36    4.7   241     6.6   983.3    0.00 
 273    0:10   0.00   78.3    34    4.2   252     5.6   983.5    0.00 
 273    0:20   0.00   78.8    33    2.2   234     3.7   983.5    0.00 
 273    0:30   0.00   76.9    36    4.2   304     5.4   983.6    0.00 
 273    0:40   0.00   76.8    36    3.9   343     5.8   983.5    0.00 
 273    0:50   0.00   76.0    37    0.5   216     1.9   983.6    0.00 
 273    1:00   0.00   75.7    38    0.3   255     2.0   983.6    0.00 
 273    1:10   0.00   74.2    40    2.3   283     4.7   983.6    0.00 
 273    1:20   0.00   73.3    41    1.4   305     3.2   983.7    0.00 
 273    1:30   0.00   74.6    39    1.6   210     3.1   983.8    0.00 
 273    1:40   0.00   75.6    37    1.4   200     2.3   983.8    0.00 
 273    1:50   0.00   76.0    37    3.1   208     5.6   983.9    0.00 
 273    2:00   0.00   75.9    37    4.4   218     6.0   983.8    0.00 
 273    2:10   0.00   75.8    37    4.3   244     6.1   983.8    0.00 
 273    2:20   0.00   75.0    38    4.5   254     5.8   983.8    0.00 
 273    2:30   0.00   74.2    39    4.3   246     5.0   983.8    0.00 
 273    2:40   0.00   73.8    40    3.2   247     4.6   983.9    0.00 
 273    2:50   0.00   75.5    37    1.5   288     3.9   984.0    0.00 
 273    3:00   0.00   75.9    37    1.9   300     3.2   984.1    0.00 
 273    3:10   0.00   75.4    38    1.8   308     2.6   984.2    0.00 
 273    3:20   0.00   74.5    39    1.9   316     2.8   984.2    0.00 
 273    3:30   0.00   74.2    40    2.4   257     3.7   984.3    0.00 
 273    3:40   0.00   72.9    42    3.3   250     4.5   984.4    0.00 
 273    3:50   0.00   72.8    42    3.4   257     4.3   984.4    0.00 
 273    4:00   0.00   73.3    41    2.2   228     3.7   984.5    0.00 
 273    4:10   0.00   74.7    39    3.0   176     4.5   984.6    0.00 
 273    4:20   0.00   74.5    40    3.5   257     6.6   984.6    0.00 
 273    4:30   0.00   73.6    40    2.7   314     5.6   984.7    0.00 
 273    4:40   0.00   72.8    42    1.6   193     3.2   984.7    0.00 
 273    4:50   0.00   73.5    41    1.9   249     3.7   984.8    0.00 
 273    5:00   0.00   76.4    37    2.6   289     5.3   984.9    0.00 
 273    5:10   0.00   74.9    39    1.8    30     4.0   984.9    0.00 
 273    5:20   0.00   73.6    41    2.5   264     3.7   985.0    0.00 
 273    5:30   0.00   74.9    39    2.5   251     3.6   985.0    0.00 
 273    5:40   0.00   73.9    41    3.2   224     4.4   985.2    0.00 
 273    5:50   0.00   72.7    42    3.7   258     5.0   985.3    0.00 
 273    6:00   0.02   73.2    42    1.8   219     2.9   985.5    0.00 
 273    6:10   0.04   75.1    39    1.4   182     3.4   985.6    0.00 
 273    6:20   0.07   76.9    38    2.6   236     4.0   985.6    0.00 
 273    6:30   0.09   78.7    36    3.2   246     4.3   985.6    0.00 
 273    6:40   0.12   81.7    33    2.1   194     3.6   985.7    0.00 
 273    6:50   0.15   81.8    33    3.0   107     4.2   985.8    0.00 
 273    7:00   0.18   81.2    34    2.8    35     3.9   985.9    0.00 
 273    7:10   0.22   80.5    35    3.4   343     4.6   986.0    0.00 
 273    7:20   0.25   81.3    34    2.3     2     3.3   986.1    0.00 
 273    7:30   0.28   83.9    31    0.6    31     2.3   986.1    0.00 
 273    7:40   0.32   87.1    28    0.4   117     1.5   986.0    0.00 
 273    7:50   0.35   88.2    27    0.5   160     1.8   986.0    0.00 
 273    8:00   0.39   90.1    25    0.2    55     1.5   986.0    0.00 
 273    8:10   0.42   88.9    26    1.4    72     3.7   986.0    0.00 
 273    8:20   0.45   88.8    26    0.9    79     4.2   986.2    0.00 
 273    8:30   0.48   90.8    24    0.7    61     2.5   986.3    0.00 
 273    8:40   0.52   89.7    25    1.7    72     3.9   986.4    0.00 
 273    8:50   0.55   89.5    25    2.8    89     5.5   986.6    0.00 
 273    9:00   0.57   89.5    25    3.3    88     6.3   986.7    0.00 
 273    9:10   0.60   89.1    25    4.0   107     7.0   986.8    0.00 
 273    9:20   0.63   90.4    24    2.4   104     4.4   986.8    0.00 
 273    9:30   0.65   91.1    24    3.2    49     6.1   986.9    0.00 
 273    9:40   0.68   92.1    23    1.8   108     5.0   986.9    0.00 
 273    9:50   0.70   92.9    23    2.0   153     4.2   987.0    0.00 
 273   10:00   0.72   92.6    23    3.7    81     7.9   987.0    0.00 
 273   10:10   0.73   92.3    23    4.1    83     7.8   987.0    0.00 
 273   10:20   0.75   92.0    23    5.2    59     8.6   987.0    0.00 
 273   10:30   0.76   91.6    24    5.6    85    10.9   986.9    0.00 
 273   10:40   0.78   92.0    23    4.5   111    10.7   986.9    0.00 
 273   10:50   0.79   93.0    23    5.2    90    11.0   986.7    0.00 
 273   11:00   0.79   93.3    23    3.3    85     9.3   986.7    0.00 
 273   11:10   0.80   93.1    23    6.4   102    11.5   986.5    0.00 
 273   11:20   0.81   93.0    23    5.1   111    11.9   986.4    0.00 
 273   11:30   0.82   93.8    22    7.8   124    14.3   986.3    0.00 
 273   11:40   0.82   93.4    23    8.3   116    15.3   986.2    0.00 
 273   11:50   0.82   93.1    23    6.7   105    12.1   986.2    0.00 
 273   12:00   0.80   93.0    25    5.9    86    12.0   986.1    0.00 
 273   12:10   0.82   92.9    25    8.6   108    17.8   985.9    0.00 
 273   12:20   0.83   93.1    25    7.8   127    14.2   985.8    0.00 
 273   12:30   0.81   93.5    24    5.1    89    13.2   985.7    0.00 
 273   12:40   0.77   93.2    24    9.6   107    15.5   985.6    0.00 
 273   12:50   0.77   93.1    24    5.7    99    13.1   985.4    0.00 
 273   13:00   0.76   93.8    24    7.7   105    14.2   985.3    0.00 
 273   13:10   0.76   93.8    24    8.0    94    13.6   985.1    0.00 
 273   13:20   0.74   94.1    24    7.2   108    15.3   985.1    0.00 
 273   13:30   0.74   94.7    23    6.2    84    14.7   985.0    0.00 
 273   13:40   0.73   94.3    23    9.4    99    17.1   984.9    0.00 
 273   13:50   0.72   94.7    23   10.1   134    15.6   984.8    0.00 
 273   14:00   0.64   94.5    23    7.4   116    14.9   984.8    0.00 
 273   14:10   0.63   94.5    23    8.9   108    14.4   984.7    0.00 
 273   14:20   0.63   94.6    23    8.0    97    14.2   984.7    0.00 
 273   14:30   0.61   94.5    23   10.4   101    16.8   984.7    0.00 
 273   14:40   0.59   94.7    23    7.3   111    14.7   984.6    0.00 
 273   14:50   0.55   94.8    23    7.9    98    14.4   984.6    0.00 
 273   15:00   0.49   94.8    23    7.7   113    14.5   984.6    0.00 
 273   15:10   0.27   94.3    23    7.8   116    13.4   984.5    0.00 
 273   15:20   0.13   93.2    24    6.2   117    12.0   984.4    0.00 
 273   15:30   0.09   92.7    25    6.4   118    10.7   984.3    0.00 
 273   15:40   0.08   92.4    26    7.5   109    13.5   984.2    0.00 
 273   15:50   0.09   92.1    26    7.2   111    11.1   984.1    0.00 
 273   16:00   0.11   92.3    25    7.0    85    17.6   983.8    0.00 
 273   16:10   0.12   92.4    24    6.9   176    14.2   983.8    0.00 
 273   16:20   0.11   92.4    25    4.6   206     8.3   983.8    0.00 
 273   16:30   0.11   92.0    25    9.2   165    13.8   983.7    0.00 
 273   16:40   0.09   91.9    25    6.3   190    11.9   983.8    0.00 
 273   16:50   0.08   92.0    25    3.7   276     6.6   983.9    0.00 

Return to Anza Borrego Desert State Park graphs page.


Western Regional Climate Center,wrcc@dri.edu